Time;durP1;ratioP1;P1;durP2;ratioP2;P2;SDS_P1;SDS_P2;PMS_P1;PMS_P2;Temp;Humidity;BMP_temperature;BMP_pressure;BME280_temperature;BME280_humidity;BME280_pressure;Samples;Min_cycle;Max_cycle;Signal;HPM_P1;HPM_P2
2022/02/08 00:01:07;;;;;;;55.38;36.83;;;;;;;;;;7328691;19;153899;-14
2022/02/08 00:03:43;;;;;;;53.78;35.90;;;;;;;;;;7331147;19;161944;-14
2022/02/08 00:06:32;;;;;;;52.10;35.08;;;;;;;;;;7328048;19;162824;-15
2022/02/08 00:09:08;;;;;;;54.92;35.92;;;;;;;;;;7329713;19;154202;-15
2022/02/08 00:11:44;;;;;;;53.92;35.75;;;;;;;;;;7329547;19;153750;-15
2022/02/08 00:14:19;;;;;;;46.90;33.45;;;;;;;;;;7329012;19;162054;-15
2022/02/08 00:16:50;;;;;;;52.95;35.47;;;;;;;;;;7328786;19;162502;-14
2022/02/08 00:19:24;;;;;;;45.55;32.47;;;;;;;;;;7331796;19;153980;-15
2022/02/08 00:21:56;;;;;;;56.28;36.22;;;;;;;;;;7327939;19;154000;-14
2022/02/08 00:24:30;;;;;;;48.88;32.95;;;;;;;;;;7328708;19;161806;-15
2022/02/08 00:27:01;;;;;;;50.53;33.58;;;;;;;;;;7327448;19;162549;-15
2022/02/08 00:29:32;;;;;;;46.67;32.22;;;;;;;;;;7328124;19;153796;-16
2022/02/08 00:32:06;;;;;;;50.65;33.95;;;;;;;;;;7331171;19;153589;-14
2022/02/08 00:34:40;;;;;;;51.72;34.42;;;;;;;;;;7328717;19;161612;-15
2022/02/08 00:37:11;;;;;;;48.75;33.08;;;;;;;;;;7331481;19;162411;-15
2022/02/08 00:39:43;;;;;;;46.85;31.48;;;;;;;;;;7330247;19;154095;-15
2022/02/08 00:42:14;;;;;;;45.92;31.70;;;;;;;;;;7331636;19;153610;-15
2022/02/08 00:44:49;;;;;;;47.92;31.98;;;;;;;;;;7330220;19;161584;-15
2022/02/08 00:47:29;;;;;;;42.35;28.92;;;;;;;;;;7329760;19;162611;-15
2022/02/08 00:50:08;;;;;;;47.03;30.98;;;;;;;;;;7330277;19;153971;-15
2022/02/08 00:52:42;;;;;;;48.78;32.70;;;;;;;;;;7330974;19;153425;-15
2022/02/08 00:55:15;;;;;;;51.20;33.53;;;;;;;;;;7329932;19;162302;-16
2022/02/08 00:57:49;;;;;;;49.42;32.85;;;;;;;;;;7330159;19;162457;-15
2022/02/08 01:00:22;;;;;;;49.08;33.30;;;;;;;;;;7328947;19;154021;-16
2022/02/08 08:38:54;;;;;;;3.13;2.80;;;;;;;;;;7369509;19;132653;-15
2022/02/08 08:41:35;;;;;;;4.32;2.80;;;;;;;;;;7366832;19;153695;-16
2022/02/08 08:55:18;;;;;;;2.95;2.53;;;;;;;;;;7364138;19;162080;-14
2022/02/08 08:57:49;;;;;;;3.08;2.55;;;;;;;;;;7364832;19;162338;-15
2022/02/08 09:00:21;;;;;;;4.75;2.97;;;;;;;;;;7366362;19;153899;-14
2022/02/08 09:02:52;;;;;;;4.53;2.47;;;;;;;;;;7367350;19;153534;-15
2022/02/08 09:05:24;;;;;;;2.47;2.28;;;;;;;;;;7363878;19;162562;-15
2022/02/08 09:07:55;;;;;;;3.20;2.70;;;;;;;;;;7362289;19;162435;-15
2022/02/08 09:10:38;;;;;;;4.88;2.80;;;;;;;;;;7365841;19;154743;-15
2022/02/08 09:13:14;;;;;;;2.85;2.65;;;;;;;;;;7367517;19;153688;-16
2022/02/08 09:15:56;;;;;;;3.70;2.90;;;;;;;;;;7364336;19;162036;-15
2022/02/08 09:22:00;;;;;;;4.20;2.38;;;;;;;;;;7360986;19;154126;-15
2022/02/08 09:27:46;;;;;;;4.55;3.58;;;;;;;;;;7363114;19;161985;-15
2022/02/08 09:30:19;;;;;;;5.28;3.80;;;;;;;;;;7365024;19;162414;-15
2022/02/08 09:32:53;;;;;;;3.58;3.22;;;;;;;;;;7365217;19;154244;-15
2022/02/08 09:35:24;;;;;;;3.63;3.28;;;;;;;;;;7365760;19;153597;-15
2022/02/08 09:37:56;;;;;;;4.30;2.65;;;;;;;;;;7356593;19;162067;-15
2022/02/08 09:40:27;;;;;;;3.95;2.80;;;;;;;;;;7334460;19;162357;-15
2022/02/08 09:43:05;;;;;;;4.97;2.60;;;;;;;;;;7336292;19;154013;-15
2022/02/08 09:45:40;;;;;;;6.63;3.10;;;;;;;;;;7336510;19;153831;-14
2022/02/08 09:48:17;;;;;;;4.38;2.60;;;;;;;;;;7334558;19;161944;-15
2022/02/08 09:50:54;;;;;;;5.18;3.55;;;;;;;;;;7335856;19;162417;-15
2022/02/08 09:53:33;;;;;;;4.43;2.60;;;;;;;;;;7336736;19;153939;-15
2022/02/08 09:56:10;;;;;;;3.63;2.70;;;;;;;;;;7336173;19;153520;-15
2022/02/08 09:58:46;;;;;;;5.00;2.75;;;;;;;;;;7335362;19;161864;-15
2022/02/08 10:01:24;;;;;;;3.92;2.60;;;;;;;;;;7335341;19;162415;-14
2022/02/08 10:03:57;;;;;;;4.40;2.42;;;;;;;;;;7336314;19;154146;-15
2022/02/08 10:06:28;;;;;;;;;;;;;;;;;;7336444;19;153575;-15
2022/02/08 10:09:01;;;;;;;3.55;2.95;;;;;;;;;;7333439;19;162326;-16
2022/02/08 10:11:41;;;;;;;2.90;2.42;;;;;;;;;;7335174;19;162414;-15
2022/02/08 10:14:23;;;;;;;3.15;2.60;;;;;;;;;;7334877;19;154479;-15
2022/02/08 10:20:47;;;;;;;3.47;2.65;;;;;;;;;;7335224;19;161814;-15
2022/02/08 10:23:00;;;;;;;4.38;2.30;;;;;;;;;;7334692;19;162383;-15
2022/02/08 10:25:46;;;;;;;3.40;2.67;;;;;;;;;;7334439;19;154464;-14
2022/02/08 10:28:29;;;;;;;2.80;2.50;;;;;;;;;;7334232;19;153524;-15
2022/02/08 10:31:25;;;;;;;2.92;2.63;;;;;;;;;;7334004;19;161671;-25
2022/02/08 10:39:26;;;;;;;2.70;2.50;;;;;;;;;;7334507;19;153573;-14
2022/02/08 10:41:57;;;;;;;3.67;2.25;;;;;;;;;;7334326;19;162150;-15
2022/02/08 10:44:36;;;;;;;2.63;2.42;;;;;;;;;;7334629;19;162512;-15
2022/02/08 10:47:10;;;;;;;2.25;2.13;;;;;;;;;;7333720;19;153883;-14
2022/02/08 10:49:42;;;;;;;2.00;1.90;;;;;;;;;;7329932;19;154232;-14
2022/02/08 10:52:14;;;;;;;2.17;1.98;;;;;;;;;;7334086;19;161799;-14
2022/02/08 10:54:48;;;;;;;2.67;2.28;;;;;;;;;;7331589;19;162445;-14
2022/02/08 10:57:27;;;;;;;2.60;2.38;;;;;;;;;;7334198;19;153895;-15
2022/02/08 11:00:04;;;;;;;2.55;2.10;;;;;;;;;;7333828;19;153543;-15
2022/02/08 11:02:43;;;;;;;2.60;2.40;;;;;;;;;;7333060;19;162447;-15
2022/02/08 11:05:23;;;;;;;3.40;2.28;;;;;;;;;;7327141;19;162829;-15
2022/02/08 11:11:00;;;;;;;2.47;2.15;;;;;;;;;;7332081;19;153583;-15
2022/02/08 11:16:28;;;;;;;2.47;2.28;;;;;;;;;;7332494;19;162471;-14
2022/02/08 11:19:38;;;;;;;2.25;1.95;;;;;;;;;;7332230;19;154137;-14
2022/02/08 11:22:26;;;;;;;2.38;2.17;;;;;;;;;;7331579;19;153545;-15
2022/02/08 11:25:04;;;;;;;2.88;2.28;;;;;;;;;;7332850;19;161946;-15
2022/02/08 11:27:42;;;;;;;2.58;2.28;;;;;;;;;;7332644;19;162595;-14
2022/02/08 11:30:17;;;;;;;2.03;1.83;;;;;;;;;;7332330;19;153936;-13
2022/02/08 11:33:03;;;;;;;4.82;2.17;;;;;;;;;;7331702;19;153791;-12
2022/02/08 11:46:59;;;;;;;4.00;2.25;;;;;;;;;;7329558;19;161795;-14
2022/02/08 11:49:49;;;;;;;2.10;1.90;;;;;;;;;;7330771;19;162374;-14
2022/02/08 11:52:33;;;;;;;2.20;1.92;;;;;;;;;;7332658;19;154081;-13
2022/02/08 11:55:40;;;;;;;2.08;1.88;;;;;;;;;;7331758;19;153565;-14
2022/02/08 12:01:07;;;;;;;2.25;1.95;;;;;;;;;;7331118;19;162428;-14
2022/02/08 12:06:47;;;;;;;;;;;;;;;;;;7331481;19;153341;-13
2022/02/08 12:09:37;;;;;;;5.00;2.00;;;;;;;;;;7329177;19;162188;-13
2022/02/08 12:32:17;;;;;;;1.80;1.70;;;;;;;;;;7331606;19;161758;-16
2022/02/08 12:35:07;;;;;;;1.80;1.70;;;;;;;;;;7331315;19;162505;-15
2022/02/08 12:54:46;;;;;;;1.60;1.48;;;;;;;;;;7329045;19;161912;-14
2022/02/08 12:57:29;;;;;;;3.00;1.80;;;;;;;;;;7324194;19;162571;-14
2022/02/08 13:00:19;;;;;;;1.52;1.42;;;;;;;;;;7330956;19;153968;-15
2022/02/08 14:01:54;;;;;;;5.68;1.70;;;;;;;;;;7331637;19;162464;-16
2022/02/08 14:07:29;;;;;;;3.50;1.50;;;;;;;;;;7335020;19;154111;-13
2022/02/08 14:10:16;;;;;;;1.70;1.60;;;;;;;;;;7326477;19;153811;-14
2022/02/08 14:15:49;;;;;;;3.58;1.50;;;;;;;;;;7334951;19;162527;-16
2022/02/08 14:18:48;;;;;;;2.72;1.60;;;;;;;;;;7334182;19;154175;-16
2022/02/08 14:21:33;;;;;;;2.83;1.42;;;;;;;;;;7335024;19;153691;-15
2022/02/08 14:24:18;;;;;;;2.50;1.45;;;;;;;;;;7332432;19;161874;-15
2022/02/08 14:29:49;;;;;;;2.08;1.40;;;;;;;;;;7330320;19;154534;-15
2022/02/08 14:32:29;;;;;;;1.88;1.13;;;;;;;;;;7331886;19;153651;-14
2022/02/08 14:49:27;;;;;;;3.08;1.50;;;;;;;;;;7327799;19;162617;-16
2022/02/08 15:00:35;;;;;;;3.92;1.58;;;;;;;;;;7328119;19;162509;-15
2022/02/08 15:06:02;;;;;;;1.52;1.40;;;;;;;;;;7330900;19;153818;-14
2022/02/08 15:08:37;;;;;;;1.73;1.20;;;;;;;;;;7330727;19;162100;-15
2022/02/08 15:11:11;;;;;;;1.73;1.20;;;;;;;;;;7328996;19;162408;-14
2022/02/08 15:13:48;;;;;;;2.30;1.50;;;;;;;;;;7331018;19;154257;-16
2022/02/08 15:16:25;;;;;;;2.58;1.27;;;;;;;;;;7331347;19;153501;-15
2022/02/08 15:18:56;;;;;;;1.38;1.25;;;;;;;;;;7330838;19;161902;-15
2022/02/08 15:21:31;;;;;;;2.75;1.70;;;;;;;;;;7330673;19;162569;-15
2022/02/08 15:24:03;;;;;;;3.88;1.60;;;;;;;;;;7330970;19;153947;-16
2022/02/08 15:26:36;;;;;;;2.92;1.38;;;;;;;;;;7330791;19;154216;-14
2022/02/08 15:29:10;;;;;;;3.20;1.70;;;;;;;;;;7330364;19;161992;-15
2022/02/08 15:31:41;;;;;;;3.33;1.30;;;;;;;;;;7328062;19;162420;-15
2022/02/08 15:34:13;;;;;;;4.05;1.10;;;;;;;;;;7329522;19;154087;-15
2022/02/08 15:36:45;;;;;;;3.05;1.63;;;;;;;;;;7328345;19;153484;-15
2022/02/08 15:39:16;;;;;;;1.75;1.30;;;;;;;;;;7329999;19;161880;-14
2022/02/08 15:41:48;;;;;;;2.78;1.50;;;;;;;;;;7330067;19;162437;-15
2022/02/08 15:44:24;;;;;;;1.55;1.27;;;;;;;;;;7330168;19;153863;-15
2022/02/08 15:46:58;;;;;;;2.10;1.33;;;;;;;;;;7330297;19;153475;-15
2022/02/08 15:49:30;;;;;;;3.05;1.55;;;;;;;;;;7328512;19;162004;-16
2022/02/08 15:52:15;;;;;;;2.80;1.17;;;;;;;;;;7327283;19;162735;-15
2022/02/08 15:54:50;;;;;;;1.42;1.17;;;;;;;;;;7329939;19;154321;-15
2022/02/08 15:58:01;;;;;;;1.85;1.15;;;;;;;;;;7330025;19;153609;-16
2022/02/08 16:01:00;;;;;;;1.35;1.25;;;;;;;;;;7328429;19;161797;-15
2022/02/08 16:09:13;;;;;;;3.53;1.67;;;;;;;;;;7329708;19;153770;-13
2022/02/08 16:14:43;;;;;;;2.15;1.50;;;;;;;;;;7329042;19;162396;-13
2022/02/08 16:17:27;;;;;;;2.38;1.17;;;;;;;;;;7329530;19;154107;-13
2022/02/08 16:20:11;;;;;;;1.30;1.17;;;;;;;;;;7329166;19;153635;-14
2022/02/08 16:25:40;;;;;;;3.83;1.85;;;;;;;;;;7326959;19;162771;-14
2022/02/08 16:28:36;;;;;;;;;;;;;;;;;;7329519;19;153989;-13
2022/02/08 16:31:38;;;;;;;1.85;1.17;;;;;;;;;;7327859;19;153351;-15
2022/02/08 16:53:39;;;;;;;2.20;1.00;;;;;;;;;;7335066;19;153623;-15
2022/02/08 16:56:19;;;;;;;1.48;1.38;;;;;;;;;;7334515;19;161829;-14
2022/02/08 16:58:55;;;;;;;2.97;1.77;;;;;;;;;;7333237;19;163006;-14
2022/02/08 17:01:29;;;;;;;1.13;1.02;;;;;;;;;;7333731;19;154102;-14
2022/02/08 17:04:00;;;;;;;1.23;1.13;;;;;;;;;;7334756;19;153520;-14
2022/02/08 17:06:34;;;;;;;1.20;1.10;;;;;;;;;;7334514;19;161782;-14
2022/02/08 17:09:08;;;;;;;2.40;1.30;;;;;;;;;;7334438;19;162467;-14
2022/02/08 17:11:45;;;;;;;2.30;1.33;;;;;;;;;;7333854;19;154191;-14
2022/02/08 17:14:31;;;;;;;1.77;1.30;;;;;;;;;;7334606;19;153539;-13
2022/02/08 17:34:25;;;;;;;;;;;;;;;;;;7333541;19;162632;-14
2022/02/08 17:47:40;;;;;;;2.58;1.20;;;;;;;;;;7333415;19;153710;-14
2022/02/08 17:50:13;;;;;;;1.77;1.45;;;;;;;;;;7333312;19;161842;-14
2022/02/08 17:52:46;;;;;;;2.25;1.45;;;;;;;;;;7331094;19;162458;-14
2022/02/08 17:55:21;;;;;;;4.00;1.50;;;;;;;;;;7332073;19;154067;-14
2022/02/08 17:57:53;;;;;;;1.48;1.25;;;;;;;;;;7333302;19;153270;-15
2022/02/08 18:00:24;;;;;;;2.95;1.70;;;;;;;;;;7331780;19;161866;-15
2022/02/08 18:02:55;;;;;;;1.48;1.38;;;;;;;;;;7332640;19;162576;-15
2022/02/08 18:05:27;;;;;;;1.52;1.40;;;;;;;;;;7333156;19;154017;-14
2022/02/08 18:07:58;;;;;;;2.67;1.02;;;;;;;;;;7332722;19;153458;-14
2022/02/08 18:10:37;;;;;;;1.60;1.15;;;;;;;;;;7332419;19;161850;-15
2022/02/08 18:13:12;;;;;;;2.30;1.17;;;;;;;;;;7330272;19;162310;-14
2022/02/08 18:15:44;;;;;;;2.53;1.35;;;;;;;;;;7332562;19;154380;-15
2022/02/08 18:18:23;;;;;;;1.88;1.35;;;;;;;;;;7332587;19;153470;-15
2022/02/08 18:20:58;;;;;;;1.35;0.95;;;;;;;;;;7332264;19;161833;-14
2022/02/08 18:50:19;;;;;;;1.30;1.20;;;;;;;;;;7332230;19;153542;-15
2022/02/08 18:57:00;;;;;;;;;;;;;;;;;;7331856;19;162482;-15
2022/02/08 19:07:57;;;;;;;2.55;1.90;;;;;;;;;;7331269;19;162376;-15
2022/02/08 19:19:05;;;;;;;2.15;1.73;;;;;;;;;;7330212;19;162639;-16
2022/02/08 19:21:44;;;;;;;3.42;1.98;;;;;;;;;;7330095;19;153988;-15
2022/02/08 19:24:19;;;;;;;4.07;2.10;;;;;;;;;;7331135;19;153483;-15
2022/02/08 19:26:51;;;;;;;3.05;2.00;;;;;;;;;;7330772;19;162012;-15
2022/02/08 19:29:23;;;;;;;2.70;1.87;;;;;;;;;;7329364;19;162831;-15
2022/02/08 19:31:57;;;;;;;2.30;2.00;;;;;;;;;;7330933;19;154015;-15
2022/02/08 19:34:28;;;;;;;5.10;2.58;;;;;;;;;;7328018;19;153334;-15
2022/02/08 19:37:05;;;;;;;3.83;2.38;;;;;;;;;;7330984;19;161999;-14
2022/02/08 19:39:37;;;;;;;3.72;2.67;;;;;;;;;;7332899;19;162587;-15
2022/02/08 19:42:10;;;;;;;4.43;2.25;;;;;;;;;;7334614;19;153972;-14
2022/02/08 19:44:45;;;;;;;7.43;3.90;;;;;;;;;;7330330;19;153602;-14
2022/02/08 19:47:19;;;;;;;4.97;3.35;;;;;;;;;;7329854;19;161892;-14
2022/02/08 19:49:51;;;;;;;5.05;3.40;;;;;;;;;;7329755;19;162654;-14
2022/02/08 19:52:24;;;;;;;5.97;2.63;;;;;;;;;;7329700;19;154355;-14
2022/02/08 19:55:17;;;;;;;6.22;3.13;;;;;;;;;;7328735;19;153362;-14
2022/02/08 19:57:51;;;;;;;5.40;3.65;;;;;;;;;;7329560;19;162031;-14
2022/02/08 20:00:27;;;;;;;5.28;3.00;;;;;;;;;;7329437;19;162659;-14
2022/02/08 20:03:05;;;;;;;4.32;2.67;;;;;;;;;;7329839;19;154231;-14
2022/02/08 20:05:37;;;;;;;7.05;3.28;;;;;;;;;;7331072;19;153510;-14
2022/02/08 20:08:09;;;;;;;8.40;4.57;;;;;;;;;;7329114;19;161828;-15
2022/02/08 20:10:40;;;;;;;265.08;202.45;;;;;;;;;;7332653;19;162620;-14
2022/02/08 20:13:12;;;;;;;336.73;268.33;;;;;;;;;;7332028;19;154389;-15
2022/02/08 20:15:43;;;;;;;134.07;98.53;;;;;;;;;;7331481;19;153847;-16
2022/02/08 20:18:19;;;;;;;127.95;94.43;;;;;;;;;;7333513;19;162070;-14
2022/02/08 20:20:51;;;;;;;76.13;55.45;;;;;;;;;;7327852;19;163070;-13
2022/02/08 20:23:23;;;;;;;67.70;47.85;;;;;;;;;;7327242;19;153966;-14
2022/02/08 20:25:55;;;;;;;81.53;60.93;;;;;;;;;;7328533;19;153567;-14
2022/02/08 20:28:35;;;;;;;146.48;102.32;;;;;;;;;;7328169;19;161873;-14
2022/02/08 20:31:07;;;;;;;124.20;91.97;;;;;;;;;;7332134;19;162748;-16
2022/02/08 20:33:43;;;;;;;90.13;65.75;;;;;;;;;;7331542;19;154062;-15
2022/02/08 20:36:15;;;;;;;92.10;65.75;;;;;;;;;;7328738;19;153626;-14
2022/02/08 20:38:48;;;;;;;92.03;69.27;;;;;;;;;;7328896;19;161882;-14
2022/02/08 20:41:20;;;;;;;;;;;;;;;;;;7331617;19;162302;-15
2022/02/08 20:43:53;;;;;;;92.47;66.05;;;;;;;;;;7332780;19;154243;-15
2022/02/08 20:46:25;;;;;;;92.90;66.40;;;;;;;;;;7328169;19;153767;-15
2022/02/08 20:48:59;;;;;;;90.28;67.25;;;;;;;;;;7327792;19;161709;-14
2022/02/08 20:51:31;;;;;;;84.60;63.78;;;;;;;;;;7328507;19;162319;-15
2022/02/08 20:54:05;;;;;;;83.50;60.97;;;;;;;;;;7329987;19;154094;-15
2022/02/08 20:56:37;;;;;;;83.90;61.08;;;;;;;;;;7329084;19;153640;-15
2022/02/08 20:59:12;;;;;;;88.40;62.25;;;;;;;;;;7328971;19;162719;-15
2022/02/08 21:01:45;;;;;;;84.38;60.70;;;;;;;;;;7330260;19;162508;-14
2022/02/08 21:04:26;;;;;;;;;;;;;;;;;;7331224;19;153934;-15
2022/02/08 21:07:04;;;;;;;83.40;58.85;;;;;;;;;;7329053;19;153511;-14
2022/02/08 21:09:35;;;;;;;78.95;58.85;;;;;;;;;;7330330;19;161694;-15
2022/02/08 21:12:26;;;;;;;76.35;58.35;;;;;;;;;;7330820;19;162220;-15
2022/02/08 21:14:58;;;;;;;80.32;59.50;;;;;;;;;;7329170;19;154075;-15
2022/02/08 21:17:30;;;;;;;79.47;57.65;;;;;;;;;;7329940;19;153718;-15
2022/02/08 21:20:05;;;;;;;79.95;55.33;;;;;;;;;;7329517;19;161898;-15
2022/02/08 21:22:36;;;;;;;76.97;56.13;;;;;;;;;;7328469;19;162602;-15
2022/02/08 21:25:09;;;;;;;69.88;51.60;;;;;;;;;;7329221;19;153970;-15
2022/02/08 21:27:45;;;;;;;71.45;53.28;;;;;;;;;;7328831;19;153740;-15
2022/02/08 21:30:30;;;;;;;75.43;54.40;;;;;;;;;;7329377;19;161995;-15
2022/02/08 21:33:21;;;;;;;73.22;53.70;;;;;;;;;;7329518;19;162423;-15
2022/02/08 21:45:02;;;;;;;66.50;49.78;;;;;;;;;;7335965;19;162384;-15
2022/02/08 21:47:42;;;;;;;68.88;50.15;;;;;;;;;;7335155;19;154096;-14
2022/02/08 21:51:01;;;;;;;64.93;49.00;;;;;;;;;;7333129;19;153575;-14
2022/02/08 21:53:20;;;;;;;66.93;50.40;;;;;;;;;;7331451;19;161846;-14
2022/02/08 21:55:54;;;;;;;67.07;49.97;;;;;;;;;;7330127;19;162108;-15
2022/02/08 21:58:27;;;;;;;61.42;48.95;;;;;;;;;;7331781;19;154323;-14
2022/02/08 22:00:59;;;;;;;65.60;48.58;;;;;;;;;;7337138;19;153556;-14
2022/02/08 22:03:30;;;;;;;;;;;;;;;;;;7332818;19;161690;-15
2022/02/08 22:06:03;;;;;;;63.97;47.63;;;;;;;;;;7332634;19;162696;-15
2022/02/08 22:08:40;;;;;;;;;;;;;;;;;;7333043;19;154458;-14
2022/02/08 22:17:09;;;;;;;58.63;43.20;;;;;;;;;;7332341;19;162506;-14
2022/02/08 22:22:39;;;;;;;59.75;45.08;;;;;;;;;;7332403;19;153711;-14
2022/02/08 22:25:32;;;;;;;55.08;40.20;;;;;;;;;;7334596;19;162139;-15
2022/02/08 22:28:19;;;;;;;62.42;43.70;;;;;;;;;;7335548;19;163075;-15
2022/02/08 22:30:56;;;;;;;53.03;41.08;;;;;;;;;;7335338;19;154093;-15
2022/02/08 22:33:35;;;;;;;56.40;42.10;;;;;;;;;;7330888;19;153637;-15
2022/02/08 22:36:14;;;;;;;52.08;41.38;;;;;;;;;;7329598;19;161874;-15
2022/02/08 22:38:50;;;;;;;52.40;39.08;;;;;;;;;;7329169;19;162064;-15
2022/02/08 22:41:28;;;;;;;53.10;40.50;;;;;;;;;;7332248;19;154111;-15
2022/02/08 22:44:04;;;;;;;55.78;40.53;;;;;;;;;;7332178;19;153598;-14
2022/02/08 22:46:35;;;;;;;53.22;40.03;;;;;;;;;;7331604;19;161846;-15
2022/02/08 22:49:06;;;;;;;52.50;39.53;;;;;;;;;;7329990;19;162505;-15
2022/02/08 22:51:38;;;;;;;49.20;38.85;;;;;;;;;;7331450;19;154016;-15
2022/02/08 22:54:09;;;;;;;45.78;37.55;;;;;;;;;;7331771;19;153669;-15
2022/02/08 22:56:43;;;;;;;44.22;36.40;;;;;;;;;;7328211;19;161991;-15
2022/02/08 22:59:15;;;;;;;48.03;37.17;;;;;;;;;;7331580;19;162528;-15
2022/02/08 23:01:46;;;;;;;47.72;37.58;;;;;;;;;;7333399;19;153934;-15
2022/02/08 23:04:20;;;;;;;47.05;35.78;;;;;;;;;;7335046;19;153644;-16
2022/02/08 23:06:53;;;;;;;49.13;38.72;;;;;;;;;;7330744;19;161825;-16
2022/02/08 23:09:32;;;;;;;46.55;35.53;;;;;;;;;;7330880;19;162450;-16
2022/02/08 23:14:59;;;;;;;43.30;34.85;;;;;;;;;;7331185;19;153460;-15
2022/02/08 23:39:21;;;;;;;40.88;32.08;;;;;;;;;;7328747;19;161955;-14
2022/02/08 23:41:53;;;;;;;43.90;33.83;;;;;;;;;;7330769;19;162610;-14
2022/02/08 23:44:29;;;;;;;41.53;32.10;;;;;;;;;;7332541;19;154086;-15
2022/02/08 23:47:02;;;;;;;38.05;30.75;;;;;;;;;;7331824;19;153612;-15
2022/02/08 23:49:37;;;;;;;;;;;;;;;;;;7332464;19;161797;-15
2022/02/08 23:52:13;;;;;;;40.53;31.40;;;;;;;;;;7330380;19;162869;-16
2022/02/08 23:54:45;;;;;;;37.28;30.10;;;;;;;;;;7333032;19;153881;-15
2022/02/08 23:57:18;;;;;;;40.00;31.83;;;;;;;;;;7329657;19;153828;-15
2022/02/08 23:59:52;;;;;;;36.63;28.92;;;;;;;;;;7332855;19;161788;-15
